sensor_id;sensor_type;location;lat;lon;timestamp;pressure;altitude;pressure_sealevel;temperature;humidity
5703;BME280;2876;51.738;10.050;2022-07-05T00:02:23;99691.00;;;15.21;73.18
5703;BME280;2876;51.738;10.050;2022-07-05T00:08:26;99700.38;;;15.18;73.75
5703;BME280;2876;51.738;10.050;2022-07-05T00:14:28;99684.56;;;15.22;73.68
5703;BME280;2876;51.738;10.050;2022-07-05T00:20:30;99697.13;;;15.10;74.02
5703;BME280;2876;51.738;10.050;2022-07-05T00:26:32;99693.81;;;15.08;73.82
5703;BME280;2876;51.738;10.050;2022-07-05T00:32:34;99688.53;;;14.94;74.69
5703;BME280;2876;51.738;10.050;2022-07-05T00:38:37;99696.06;;;14.86;75.33
5703;BME280;2876;51.738;10.050;2022-07-05T00:44:40;99700.00;;;14.90;74.97
5703;BME280;2876;51.738;10.050;2022-07-05T00:50:44;99713.56;;;14.77;75.35
5703;BME280;2876;51.738;10.050;2022-07-05T00:56:47;99711.13;;;14.68;75.66
5703;BME280;2876;51.738;10.050;2022-07-05T01:02:51;99715.91;;;14.66;75.73
5703;BME280;2876;51.738;10.050;2022-07-05T01:08:53;99711.81;;;14.57;76.41
5703;BME280;2876;51.738;10.050;2022-07-05T01:14:56;99715.78;;;14.48;77.08
5703;BME280;2876;51.738;10.050;2022-07-05T01:20:59;99712.84;;;14.63;77.33
5703;BME280;2876;51.738;10.050;2022-07-05T01:27:02;99708.19;;;14.70;78.12
5703;BME280;2876;51.738;10.050;2022-07-05T01:33:06;99708.34;;;14.82;77.74
5703;BME280;2876;51.738;10.050;2022-07-05T01:39:08;99703.63;;;14.70;78.45
5703;BME280;2876;51.738;10.050;2022-07-05T01:45:11;99701.72;;;14.78;78.28
5703;BME280;2876;51.738;10.050;2022-07-05T01:51:22;99700.00;;;14.90;78.04
5703;BME280;2876;51.738;10.050;2022-07-05T01:57:26;99692.16;;;15.07;78.47
5703;BME280;2876;51.738;10.050;2022-07-05T02:03:29;99687.94;;;15.17;77.74
5703;BME280;2876;51.738;10.050;2022-07-05T02:09:51;99680.75;;;15.30;78.61
5703;BME280;2876;51.738;10.050;2022-07-05T02:15:53;99689.00;;;15.35;78.92
5703;BME280;2876;51.738;10.050;2022-07-05T02:21:55;99674.53;;;15.47;77.96
5703;BME280;2876;51.738;10.050;2022-07-05T02:27:58;99682.59;;;15.54;77.51
5703;BME280;2876;51.738;10.050;2022-07-05T02:34:00;99689.34;;;15.20;78.97
5703;BME280;2876;51.738;10.050;2022-07-05T02:40:03;99708.75;;;15.10;78.69
5703;BME280;2876;51.738;10.050;2022-07-05T02:46:07;99708.03;;;14.96;78.97
5703;BME280;2876;51.738;10.050;2022-07-05T02:52:10;99714.16;;;14.85;79.16
5703;BME280;2876;51.738;10.050;2022-07-05T02:58:12;99705.03;;;14.80;79.23
5703;BME280;2876;51.738;10.050;2022-07-05T03:04:14;99709.84;;;14.71;79.83
5703;BME280;2876;51.738;10.050;2022-07-05T03:10:16;99705.31;;;14.65;79.90
5703;BME280;2876;51.738;10.050;2022-07-05T03:16:18;99704.59;;;14.44;80.73
5703;BME280;2876;51.738;10.050;2022-07-05T03:22:20;99707.06;;;14.53;80.39
5703;BME280;2876;51.738;10.050;2022-07-05T03:28:22;99712.56;;;14.19;81.45
5703;BME280;2876;51.738;10.050;2022-07-05T03:34:25;99719.25;;;14.10;82.25
5703;BME280;2876;51.738;10.050;2022-07-05T03:40:27;99715.88;;;14.21;82.02
5703;BME280;2876;51.738;10.050;2022-07-05T03:46:29;99717.97;;;14.26;82.49
5703;BME280;2876;51.738;10.050;2022-07-05T03:52:31;99713.22;;;14.15;83.14
5703;BME280;2876;51.738;10.050;2022-07-05T03:58:33;99733.56;;;14.17;83.23
5703;BME280;2876;51.738;10.050;2022-07-05T04:04:35;99732.22;;;14.40;83.07
5703;BME280;2876;51.738;10.050;2022-07-05T04:10:37;99729.13;;;14.36;83.03
5703;BME280;2876;51.738;10.050;2022-07-05T04:16:39;99730.59;;;14.32;83.61
5703;BME280;2876;51.738;10.050;2022-07-05T04:22:41;99725.72;;;14.47;83.15
5703;BME280;2876;51.738;10.050;2022-07-05T04:28:43;99733.00;;;14.47;83.28
5703;BME280;2876;51.738;10.050;2022-07-05T04:34:46;99734.19;;;14.64;83.32
5703;BME280;2876;51.738;10.050;2022-07-05T04:40:48;99737.56;;;14.91;82.29
5703;BME280;2876;51.738;10.050;2022-07-05T04:46:50;99742.09;;;14.97;81.84
5703;BME280;2876;51.738;10.050;2022-07-05T04:52:52;99747.09;;;15.26;81.05
5703;BME280;2876;51.738;10.050;2022-07-05T04:58:54;99758.31;;;15.54;79.71
5703;BME280;2876;51.738;10.050;2022-07-05T05:04:56;99761.41;;;15.83;78.60
5703;BME280;2876;51.738;10.050;2022-07-05T05:10:58;99768.19;;;16.29;76.86
5703;BME280;2876;51.738;10.050;2022-07-05T05:17:00;99774.72;;;16.21;76.92
5703;BME280;2876;51.738;10.050;2022-07-05T05:23:02;99766.91;;;16.49;76.87
5703;BME280;2876;51.738;10.050;2022-07-05T05:29:04;99783.44;;;16.78;75.52
5703;BME280;2876;51.738;10.050;2022-07-05T05:35:07;99779.22;;;16.82;74.99
5703;BME280;2876;51.738;10.050;2022-07-05T05:41:09;99783.81;;;17.12;74.89
5703;BME280;2876;51.738;10.050;2022-07-05T05:47:11;99794.06;;;17.63;73.13
5703;BME280;2876;51.738;10.050;2022-07-05T05:53:18;99802.38;;;17.92;71.53
5703;BME280;2876;51.738;10.050;2022-07-05T05:59:20;99808.72;;;18.33;71.07
5703;BME280;2876;51.738;10.050;2022-07-05T06:05:22;99804.22;;;18.50;70.44
5703;BME280;2876;51.738;10.050;2022-07-05T06:11:24;99814.03;;;18.91;69.16
5703;BME280;2876;51.738;10.050;2022-07-05T06:17:25;99814.56;;;19.34;67.44
5703;BME280;2876;51.738;10.050;2022-07-05T06:23:28;99816.03;;;19.70;66.71
5703;BME280;2876;51.738;10.050;2022-07-05T06:29:30;99826.78;;;20.15;65.94
5703;BME280;2876;51.738;10.050;2022-07-05T06:35:33;99834.53;;;20.23;65.00
5703;BME280;2876;51.738;10.050;2022-07-05T06:41:35;99829.78;;;19.97;66.08
5703;BME280;2876;51.738;10.050;2022-07-05T06:47:38;99834.94;;;20.32;66.21
5703;BME280;2876;51.738;10.050;2022-07-05T06:53:40;99830.13;;;21.00;64.30
5703;BME280;2876;51.738;10.050;2022-07-05T06:59:42;99833.63;;;21.22;63.31
5703;BME280;2876;51.738;10.050;2022-07-05T07:06:00;99830.00;;;20.90;65.26
5703;BME280;2876;51.738;10.050;2022-07-05T07:12:04;99835.41;;;21.34;64.81
5703;BME280;2876;51.738;10.050;2022-07-05T07:18:06;99839.91;;;21.77;62.50
5703;BME280;2876;51.738;10.050;2022-07-05T07:24:09;99842.94;;;22.13;62.94
5703;BME280;2876;51.738;10.050;2022-07-05T07:30:13;99836.28;;;22.98;59.10
5703;BME280;2876;51.738;10.050;2022-07-05T07:36:16;99852.81;;;23.44;57.72
5703;BME280;2876;51.738;10.050;2022-07-05T07:42:18;99847.41;;;23.85;55.43
5703;BME280;2876;51.738;10.050;2022-07-05T07:48:20;99834.19;;;23.41;55.69
5703;BME280;2876;51.738;10.050;2022-07-05T07:54:22;99838.84;;;23.56;55.03
5703;BME280;2876;51.738;10.050;2022-07-05T08:00:24;99841.31;;;24.29;53.29
5703;BME280;2876;51.738;10.050;2022-07-05T08:06:26;99838.22;;;24.71;51.76
5703;BME280;2876;51.738;10.050;2022-07-05T08:12:28;99837.66;;;24.69;50.65
5703;BME280;2876;51.738;10.050;2022-07-05T08:18:30;99839.06;;;25.26;49.14
5703;BME280;2876;51.738;10.050;2022-07-05T08:24:51;99839.50;;;24.89;47.53
5703;BME280;2876;51.738;10.050;2022-07-05T08:30:53;99840.84;;;23.76;51.33
5703;BME280;2876;51.738;10.050;2022-07-05T08:36:56;99830.84;;;24.51;50.27
5703;BME280;2876;51.738;10.050;2022-07-05T08:42:58;99829.19;;;25.25;48.92
5703;BME280;2876;51.738;10.050;2022-07-05T08:49:05;99824.44;;;25.70;44.42
5703;BME280;2876;51.738;10.050;2022-07-05T08:55:13;99835.75;;;25.24;44.55
5703;BME280;2876;51.738;10.050;2022-07-05T09:01:16;99827.47;;;26.08;41.61
5703;BME280;2876;51.738;10.050;2022-07-05T09:07:21;99830.81;;;26.00;41.75
5703;BME280;2876;51.738;10.050;2022-07-05T09:13:24;99835.06;;;24.98;43.38
5703;BME280;2876;51.738;10.050;2022-07-05T09:19:26;99841.91;;;24.00;46.55
5703;BME280;2876;51.738;10.050;2022-07-05T09:25:31;99834.00;;;25.44;43.75
5703;BME280;2876;51.738;10.050;2022-07-05T09:31:45;99836.63;;;25.59;43.18
5703;BME280;2876;51.738;10.050;2022-07-05T09:37:48;99839.75;;;26.45;40.99
5703;BME280;2876;51.738;10.050;2022-07-05T09:43:50;99836.22;;;27.06;40.85
5703;BME280;2876;51.738;10.050;2022-07-05T09:49:54;99831.16;;;27.18;40.45
5703;BME280;2876;51.738;10.050;2022-07-05T09:56:10;99825.56;;;26.56;41.72
5703;BME280;2876;51.738;10.050;2022-07-05T10:02:12;99826.84;;;25.82;41.49
5703;BME280;2876;51.738;10.050;2022-07-05T10:08:15;99829.84;;;25.46;41.65
5703;BME280;2876;51.738;10.050;2022-07-05T10:14:20;99824.72;;;24.85;46.07
5703;BME280;2876;51.738;10.050;2022-07-05T10:20:42;99827.34;;;25.05;44.70
5703;BME280;2876;51.738;10.050;2022-07-05T10:26:47;99827.09;;;24.97;43.52
5703;BME280;2876;51.738;10.050;2022-07-05T10:32:50;99827.66;;;26.89;40.28
5703;BME280;2876;51.738;10.050;2022-07-05T10:38:53;99830.78;;;26.82;40.95
5703;BME280;2876;51.738;10.050;2022-07-05T10:44:55;99843.66;;;26.87;39.60
5703;BME280;2876;51.738;10.050;2022-07-05T10:57:22;99841.84;;;27.20;38.42
5703;BME280;2876;51.738;10.050;2022-07-05T11:09:59;99834.03;;;27.46;38.18
5703;BME280;2876;51.738;10.050;2022-07-05T11:22:29;99823.88;;;27.79;37.36
5703;BME280;2876;51.738;10.050;2022-07-05T11:28:42;99816.88;;;27.87;37.57
5703;BME280;2876;51.738;10.050;2022-07-05T11:34:50;99821.56;;;27.86;37.94
5703;BME280;2876;51.738;10.050;2022-07-05T11:40:54;99814.47;;;29.23;34.23
5703;BME280;2876;51.738;10.050;2022-07-05T11:47:01;99804.41;;;28.63;33.74
5703;BME280;2876;51.738;10.050;2022-07-05T11:53:10;99794.28;;;27.66;35.35
5703;BME280;2876;51.738;10.050;2022-07-05T11:59:22;99786.97;;;27.42;36.25
5703;BME280;2876;51.738;10.050;2022-07-05T12:05:32;99775.53;;;27.16;36.48
5703;BME280;2876;51.738;10.050;2022-07-05T12:11:38;99773.53;;;26.79;36.69
5703;BME280;2876;51.738;10.050;2022-07-05T12:18:02;99774.34;;;27.74;33.59
5703;BME280;2876;51.738;10.050;2022-07-05T12:24:07;99776.50;;;28.37;33.56
5703;BME280;2876;51.738;10.050;2022-07-05T12:30:11;99772.50;;;28.43;33.48
5703;BME280;2876;51.738;10.050;2022-07-05T12:36:15;99775.13;;;29.03;31.86
5703;BME280;2876;51.738;10.050;2022-07-05T12:42:38;99769.66;;;28.48;33.10
5703;BME280;2876;51.738;10.050;2022-07-05T12:48:40;99770.44;;;28.21;32.78
5703;BME280;2876;51.738;10.050;2022-07-05T12:54:43;99764.03;;;28.40;34.41
5703;BME280;2876;51.738;10.050;2022-07-05T13:01:27;99758.06;;;30.00;30.56
5703;BME280;2876;51.738;10.050;2022-07-05T13:07:30;99761.88;;;29.37;30.28
5703;BME280;2876;51.738;10.050;2022-07-05T13:13:40;99753.72;;;29.31;30.77
5703;BME280;2876;51.738;10.050;2022-07-05T13:19:45;99756.59;;;29.04;31.14
5703;BME280;2876;51.738;10.050;2022-07-05T13:25:48;99764.41;;;30.00;30.03
5703;BME280;2876;51.738;10.050;2022-07-05T13:31:50;99768.13;;;29.65;30.36
5703;BME280;2876;51.738;10.050;2022-07-05T13:37:52;99757.25;;;29.68;30.37
5703;BME280;2876;51.738;10.050;2022-07-05T13:43:55;99774.38;;;31.24;28.83
5703;BME280;2876;51.738;10.050;2022-07-05T13:49:57;99755.22;;;30.53;29.62
5703;BME280;2876;51.738;10.050;2022-07-05T13:56:17;99754.44;;;31.83;28.01
5703;BME280;2876;51.738;10.050;2022-07-05T14:02:19;99749.94;;;30.35;28.75
5703;BME280;2876;51.738;10.050;2022-07-05T14:08:21;99745.91;;;29.33;30.73
5703;BME280;2876;51.738;10.050;2022-07-05T14:14:23;99750.00;;;30.12;29.65
5703;BME280;2876;51.738;10.050;2022-07-05T14:20:26;99755.66;;;29.09;30.28
5703;BME280;2876;51.738;10.050;2022-07-05T14:26:28;99748.28;;;29.94;30.52
5703;BME280;2876;51.738;10.050;2022-07-05T14:32:30;99753.66;;;30.96;27.44
5703;BME280;2876;51.738;10.050;2022-07-05T14:38:32;99750.94;;;30.47;27.53
5703;BME280;2876;51.738;10.050;2022-07-05T14:44:34;99740.78;;;29.18;29.82
5703;BME280;2876;51.738;10.050;2022-07-05T14:50:36;99736.81;;;27.59;31.65
5703;BME280;2876;51.738;10.050;2022-07-05T14:56:38;99735.28;;;27.99;31.35
5703;BME280;2876;51.738;10.050;2022-07-05T15:02:41;99719.03;;;27.65;31.59
5703;BME280;2876;51.738;10.050;2022-07-05T15:08:43;99731.69;;;27.99;30.87
5703;BME280;2876;51.738;10.050;2022-07-05T15:14:45;99745.06;;;28.05;30.12
5703;BME280;2876;51.738;10.050;2022-07-05T15:20:47;99737.72;;;28.01;30.79
5703;BME280;2876;51.738;10.050;2022-07-05T15:26:49;99735.75;;;27.74;31.19
5703;BME280;2876;51.738;10.050;2022-07-05T15:33:10;99732.84;;;27.33;32.29
5703;BME280;2876;51.738;10.050;2022-07-05T15:39:12;99727.72;;;27.59;32.75
5703;BME280;2876;51.738;10.050;2022-07-05T15:45:14;99724.03;;;27.49;33.18
5703;BME280;2876;51.738;10.050;2022-07-05T15:51:19;99734.44;;;27.52;32.78
5703;BME280;2876;51.738;10.050;2022-07-05T15:57:21;99725.69;;;27.64;32.24
5703;BME280;2876;51.738;10.050;2022-07-05T16:03:25;99727.13;;;27.62;32.32
5703;BME280;2876;51.738;10.050;2022-07-05T16:09:27;99716.00;;;27.67;32.69
5703;BME280;2876;51.738;10.050;2022-07-05T16:15:29;99725.16;;;27.95;32.44
5703;BME280;2876;51.738;10.050;2022-07-05T16:21:51;99729.59;;;27.30;33.32
5703;BME280;2876;51.738;10.050;2022-07-05T16:27:53;99731.25;;;27.13;33.37
5703;BME280;2876;51.738;10.050;2022-07-05T16:33:55;99725.53;;;26.47;34.49
5703;BME280;2876;51.738;10.050;2022-07-05T16:39:57;99733.25;;;26.45;34.63
5703;BME280;2876;51.738;10.050;2022-07-05T16:46:07;99736.28;;;25.96;34.74
5703;BME280;2876;51.738;10.050;2022-07-05T16:52:10;99727.19;;;25.37;35.25
5703;BME280;2876;51.738;10.050;2022-07-05T16:58:12;99733.09;;;25.20;36.28
5703;BME280;2876;51.738;10.050;2022-07-05T17:04:14;99722.59;;;25.27;35.70
5703;BME280;2876;51.738;10.050;2022-07-05T17:10:17;99723.38;;;25.33;37.17
5703;BME280;2876;51.738;10.050;2022-07-05T17:16:24;99731.72;;;26.10;34.93
5703;BME280;2876;51.738;10.050;2022-07-05T17:22:27;99735.81;;;26.61;33.90
5703;BME280;2876;51.738;10.050;2022-07-05T17:28:30;99729.09;;;26.00;34.74
5703;BME280;2876;51.738;10.050;2022-07-05T17:34:32;99734.31;;;25.38;35.07
5703;BME280;2876;51.738;10.050;2022-07-05T17:40:34;99735.78;;;25.30;36.05
5703;BME280;2876;51.738;10.050;2022-07-05T17:46:36;99735.34;;;25.82;35.90
5703;BME280;2876;51.738;10.050;2022-07-05T17:52:38;99741.38;;;27.96;33.35
5703;BME280;2876;51.738;10.050;2022-07-05T17:58:41;99743.94;;;29.25;30.88
5703;BME280;2876;51.738;10.050;2022-07-05T18:04:43;99750.72;;;28.14;32.08
5703;BME280;2876;51.738;10.050;2022-07-05T18:10:46;99740.25;;;26.56;35.17
5703;BME280;2876;51.738;10.050;2022-07-05T18:16:48;99738.34;;;25.51;37.00
5703;BME280;2876;51.738;10.050;2022-07-05T18:22:50;99747.13;;;26.35;35.49
5703;BME280;2876;51.738;10.050;2022-07-05T18:28:53;99753.34;;;27.59;33.54
5703;BME280;2876;51.738;10.050;2022-07-05T18:34:55;99752.41;;;26.74;35.32
5703;BME280;2876;51.738;10.050;2022-07-05T18:40:57;99747.53;;;25.99;37.11
5703;BME280;2876;51.738;10.050;2022-07-05T18:46:59;99750.09;;;25.56;38.01
5703;BME280;2876;51.738;10.050;2022-07-05T18:53:01;99739.72;;;24.65;38.26
5703;BME280;2876;51.738;10.050;2022-07-05T18:59:05;99748.50;;;23.71;39.62
5703;BME280;2876;51.738;10.050;2022-07-05T19:05:08;99744.91;;;22.99;41.77
5703;BME280;2876;51.738;10.050;2022-07-05T19:11:10;99746.09;;;22.56;42.31
5703;BME280;2876;51.738;10.050;2022-07-05T19:17:31;99747.91;;;22.30;45.52
5703;BME280;2876;51.738;10.050;2022-07-05T19:23:33;99753.41;;;21.93;45.33
5703;BME280;2876;51.738;10.050;2022-07-05T19:29:35;99754.56;;;21.60;47.07
5703;BME280;2876;51.738;10.050;2022-07-05T19:35:37;99762.03;;;21.37;47.11
5703;BME280;2876;51.738;10.050;2022-07-05T19:41:39;99768.97;;;21.23;47.73
5703;BME280;2876;51.738;10.050;2022-07-05T19:47:41;99774.41;;;21.23;48.41
5703;BME280;2876;51.738;10.050;2022-07-05T19:53:44;99783.09;;;20.93;48.08
5703;BME280;2876;51.738;10.050;2022-07-05T19:59:46;99793.16;;;20.65;49.48
5703;BME280;2876;51.738;10.050;2022-07-05T20:05:48;99807.81;;;20.42;49.79
5703;BME280;2876;51.738;10.050;2022-07-05T20:11:50;99814.75;;;20.11;51.30
5703;BME280;2876;51.738;10.050;2022-07-05T20:18:03;99816.41;;;20.12;50.53
5703;BME280;2876;51.738;10.050;2022-07-05T20:24:05;99822.97;;;19.94;51.28
5703;BME280;2876;51.738;10.050;2022-07-05T20:30:08;99833.66;;;20.01;52.15
5703;BME280;2876;51.738;10.050;2022-07-05T20:36:10;99836.81;;;19.93;52.55
5703;BME280;2876;51.738;10.050;2022-07-05T20:42:12;99835.97;;;19.92;52.81
5703;BME280;2876;51.738;10.050;2022-07-05T20:48:14;99838.88;;;19.86;52.99
5703;BME280;2876;51.738;10.050;2022-07-05T20:54:16;99841.78;;;19.50;54.45
5703;BME280;2876;51.738;10.050;2022-07-05T21:00:18;99847.53;;;19.37;55.20
5703;BME280;2876;51.738;10.050;2022-07-05T21:06:22;99855.44;;;19.22;56.35
5703;BME280;2876;51.738;10.050;2022-07-05T21:12:24;99865.16;;;19.06;57.49
5703;BME280;2876;51.738;10.050;2022-07-05T21:18:26;99880.56;;;19.00;58.21
5703;BME280;2876;51.738;10.050;2022-07-05T21:24:32;99885.19;;;18.88;59.13
5703;BME280;2876;51.738;10.050;2022-07-05T21:30:34;99891.72;;;18.64;59.42
5703;BME280;2876;51.738;10.050;2022-07-05T21:36:36;99902.59;;;18.87;59.16
5703;BME280;2876;51.738;10.050;2022-07-05T21:42:38;99913.25;;;18.77;59.88
5703;BME280;2876;51.738;10.050;2022-07-05T21:48:40;99916.06;;;18.70;60.40
5703;BME280;2876;51.738;10.050;2022-07-05T21:54:42;99921.75;;;18.69;60.88
5703;BME280;2876;51.738;10.050;2022-07-05T22:00:44;99929.19;;;18.73;61.31
5703;BME280;2876;51.738;10.050;2022-07-05T22:07:07;99925.31;;;18.69;61.21
5703;BME280;2876;51.738;10.050;2022-07-05T22:13:09;99930.03;;;18.74;61.30
5703;BME280;2876;51.738;10.050;2022-07-05T22:19:11;99927.91;;;18.76;61.59
5703;BME280;2876;51.738;10.050;2022-07-05T22:25:13;99934.03;;;18.60;62.14
5703;BME280;2876;51.738;10.050;2022-07-05T22:31:15;99922.22;;;18.42;62.62
5703;BME280;2876;51.738;10.050;2022-07-05T22:37:17;99925.97;;;18.18;63.17
5703;BME280;2876;51.738;10.050;2022-07-05T22:43:19;99930.94;;;18.09;64.02
5703;BME280;2876;51.738;10.050;2022-07-05T22:49:21;99931.13;;;17.96;64.46
5703;BME280;2876;51.738;10.050;2022-07-05T22:55:23;99933.63;;;17.67;65.42
5703;BME280;2876;51.738;10.050;2022-07-05T23:01:25;99938.81;;;17.39;66.35
5703;BME280;2876;51.738;10.050;2022-07-05T23:07:28;99949.75;;;17.32;66.62
5703;BME280;2876;51.738;10.050;2022-07-05T23:13:30;99946.94;;;16.90;68.15
5703;BME280;2876;51.738;10.050;2022-07-05T23:19:32;99940.88;;;17.07;68.22
5703;BME280;2876;51.738;10.050;2022-07-05T23:25:34;99948.47;;;16.80;69.26
5703;BME280;2876;51.738;10.050;2022-07-05T23:31:36;99948.44;;;16.61;70.26
5703;BME280;2876;51.738;10.050;2022-07-05T23:37:39;99948.34;;;16.74;70.86
5703;BME280;2876;51.738;10.050;2022-07-05T23:43:41;99943.31;;;16.53;71.34
5703;BME280;2876;51.738;10.050;2022-07-05T23:49:43;99951.38;;;16.35;72.13
5703;BME280;2876;51.738;10.050;2022-07-05T23:55:45;99956.31;;;16.19;72.52
